TKJ9EC LTFJ-LWSK
Flight info
| Callsign | TKJ9EC |
|---|---|
| Flight time | 1h 2m |
| Altitude | 30000 |
| Route | BARPE UG12 GOLDO DCT SUTIS UM603 PEREN UN128 RUGAS |
| Aircraft | B38M/M-SDE1FGHILORVWXY/HB1 |
Departure
| Time | 2026-05-04 09:49 |
|---|---|
| Airport | Istanbul Sabiha Gökçen International Airport (LTFJ) |
Arrival
| Time | 2026-05-04 10:51 |
|---|---|
| Airport | Skopje International Airport (LWSK) |
| Time | Latitude | Longitude | Altitude | Speed | Heading |
|---|---|---|---|---|---|
| 2026-05-04 09:19 | 40.90634 | 29.31648 | 323 ft | 0 kts | 334° |
| 2026-05-04 09:34 | 40.90629 | 29.31652 | 322 ft | 2 kts | 334° |
| 2026-05-04 09:34 | 40.90611 | 29.31663 | 322 ft | 3 kts | 334° |
| 2026-05-04 09:35 | 40.90593 | 29.31675 | 320 ft | 3 kts | 334° |
| 2026-05-04 09:35 | 40.90577 | 29.31685 | 321 ft | 3 kts | 329° |
| 2026-05-04 09:35 | 40.90563 | 29.31701 | 321 ft | 3 kts | 300° |
| 2026-05-04 09:35 | 40.90558 | 29.31724 | 322 ft | 3 kts | 262° |
| 2026-05-04 09:37 | 40.90572 | 29.31771 | 321 ft | 0 kts | 244° |
| 2026-05-04 09:40 | 40.90568 | 29.31760 | 323 ft | 3 kts | 244° |
| 2026-05-04 09:40 | 40.90547 | 29.31701 | 321 ft | 11 kts | 244° |
| 2026-05-04 09:40 | 40.90517 | 29.31621 | 321 ft | 0 kts | 244° |
| 2026-05-04 09:41 | 40.90514 | 29.31612 | 321 ft | 2 kts | 244° |
| 2026-05-04 09:42 | 40.90226 | 29.31353 | 321 ft | 14 kts | 239° |
| 2026-05-04 09:43 | 40.90170 | 29.31204 | 322 ft | 24 kts | 245° |
| 2026-05-04 09:43 | 40.90091 | 29.30986 | 323 ft | 28 kts | 243° |
| 2026-05-04 09:43 | 40.90009 | 29.30768 | 323 ft | 27 kts | 244° |
| 2026-05-04 09:43 | 40.89927 | 29.30543 | 323 ft | 28 kts | 244° |
| 2026-05-04 09:44 | 40.89840 | 29.30309 | 320 ft | 28 kts | 244° |
| 2026-05-04 09:44 | 40.89763 | 29.30097 | 322 ft | 26 kts | 244° |
| 2026-05-04 09:44 | 40.89683 | 29.29878 | 321 ft | 27 kts | 244° |
| 2026-05-04 09:46 | 40.89330 | 29.29295 | 323 ft | 2 kts | 152° |
| 2026-05-04 09:46 | 40.89315 | 29.29307 | 323 ft | 3 kts | 145° |
| 2026-05-04 09:46 | 40.89293 | 29.29348 | 324 ft | 9 kts | 109° |
| 2026-05-04 09:47 | 40.89298 | 29.29406 | 322 ft | 1 kts | 66° |
| 2026-05-04 09:47 | 40.89303 | 29.29422 | 323 ft | 3 kts | 66° |
| 2026-05-04 09:49 | 40.92161 | 29.37269 | 3728 ft | 194 kts | 57° |
| 2026-05-04 09:49 | 40.92784 | 29.38924 | 4386 ft | 211 kts | 59° |
| 2026-05-04 09:49 | 40.93116 | 29.40962 | 4895 ft | 249 kts | 90° |
| 2026-05-04 09:51 | 40.83111 | 29.47352 | 8302 ft | 292 kts | 204° |
| 2026-05-04 09:51 | 40.81320 | 29.46035 | 9063 ft | 299 kts | 223° |
| 2026-05-04 09:51 | 40.79702 | 29.44225 | 9776 ft | 308 kts | 226° |
| 2026-05-04 09:51 | 40.78095 | 29.42356 | 10668 ft | 312 kts | 226° |
| 2026-05-04 09:52 | 40.76442 | 29.40399 | 11249 ft | 328 kts | 226° |
| 2026-05-04 09:52 | 40.74703 | 29.38319 | 11899 ft | 344 kts | 226° |
| 2026-05-04 09:52 | 40.72900 | 29.36139 | 12578 ft | 357 kts | 228° |
| 2026-05-04 09:52 | 40.71445 | 29.33507 | 13230 ft | 355 kts | 251° |
| 2026-05-04 09:53 | 40.70814 | 29.30395 | 13912 ft | 350 kts | 272° |
| 2026-05-04 09:53 | 40.71033 | 29.27246 | 14542 ft | 342 kts | 291° |
| 2026-05-04 09:53 | 40.71656 | 29.24263 | 15235 ft | 345 kts | 292° |
| 2026-05-04 09:53 | 40.72337 | 29.21202 | 15872 ft | 348 kts | 292° |
| 2026-05-04 09:54 | 40.73049 | 29.18120 | 16532 ft | 352 kts | 293° |
| 2026-05-04 09:54 | 40.73777 | 29.15026 | 17165 ft | 356 kts | 293° |
| 2026-05-04 09:54 | 40.74524 | 29.11894 | 17790 ft | 359 kts | 293° |
| 2026-05-04 09:54 | 40.75280 | 29.08744 | 18412 ft | 362 kts | 293° |
| 2026-05-04 09:55 | 40.76048 | 29.05555 | 18927 ft | 366 kts | 293° |
| 2026-05-04 09:55 | 40.76813 | 29.02331 | 19440 ft | 371 kts | 290° |
| 2026-05-04 09:55 | 40.77160 | 28.98924 | 19963 ft | 379 kts | 279° |
| 2026-05-04 09:55 | 40.77370 | 28.95440 | 20431 ft | 384 kts | 280° |
| 2026-05-04 09:56 | 40.77584 | 28.91911 | 20952 ft | 386 kts | 279° |
| 2026-05-04 09:56 | 40.77793 | 28.88360 | 21444 ft | 390 kts | 279° |
| 2026-05-04 09:56 | 40.78001 | 28.84782 | 21941 ft | 393 kts | 279° |
| 2026-05-04 09:56 | 40.78209 | 28.81174 | 22446 ft | 397 kts | 279° |
| 2026-05-04 09:57 | 40.78418 | 28.77518 | 22931 ft | 400 kts | 279° |
| 2026-05-04 09:57 | 40.78627 | 28.73842 | 23432 ft | 403 kts | 279° |
| 2026-05-04 09:57 | 40.78836 | 28.70140 | 23833 ft | 407 kts | 279° |
| 2026-05-04 09:57 | 40.79045 | 28.66410 | 24217 ft | 410 kts | 279° |
| 2026-05-04 09:58 | 40.79256 | 28.62641 | 24624 ft | 414 kts | 279° |
| 2026-05-04 09:58 | 40.79397 | 28.58820 | 24979 ft | 420 kts | 272° |
| 2026-05-04 09:58 | 40.79209 | 28.55007 | 25391 ft | 423 kts | 271° |
| 2026-05-04 10:00 | 40.78273 | 28.27050 | 27824 ft | 446 kts | 271° |
| 2026-05-04 10:00 | 40.78311 | 28.22963 | 28150 ft | 446 kts | 277° |
| 2026-05-04 10:02 | 40.79247 | 27.93681 | 30037 ft | 472 kts | 275° |
| 2026-05-04 10:04 | 40.79680 | 27.62211 | 30044 ft | 497 kts | 275° |
| 2026-05-04 10:04 | 40.80243 | 27.57758 | 30059 ft | 489 kts | 289° |
| 2026-05-04 10:04 | 40.81149 | 27.53422 | 30035 ft | 491 kts | 288° |
| 2026-05-04 10:05 | 40.82935 | 27.44717 | 30055 ft | 491 kts | 288° |
| 2026-05-04 10:05 | 40.84452 | 27.37420 | 30051 ft | 491 kts | 288° |
| 2026-05-04 10:06 | 40.86243 | 27.28786 | 30057 ft | 491 kts | 288° |
| 2026-05-04 10:06 | 40.88047 | 27.20059 | 30056 ft | 491 kts | 288° |
| 2026-05-04 10:08 | 40.92295 | 26.93654 | 30083 ft | 495 kts | 266° |
| 2026-05-04 10:08 | 40.92074 | 26.89107 | 30069 ft | 495 kts | 267° |
| 2026-05-04 10:08 | 40.91580 | 26.80015 | 30083 ft | 495 kts | 266° |
| 2026-05-04 10:09 | 40.91047 | 26.70946 | 30077 ft | 494 kts | 266° |
| 2026-05-04 10:09 | 40.90506 | 26.61890 | 30089 ft | 494 kts | 266° |
| 2026-05-04 10:10 | 40.89958 | 26.52852 | 30080 ft | 493 kts | 266° |
| 2026-05-04 10:10 | 40.89404 | 26.43825 | 30092 ft | 493 kts | 265° |
| 2026-05-04 10:11 | 40.88842 | 26.34787 | 30082 ft | 493 kts | 265° |
| 2026-05-04 10:11 | 40.88265 | 26.25823 | 30087 ft | 492 kts | 263° |
| 2026-05-04 10:12 | 40.87203 | 26.16890 | 30084 ft | 492 kts | 261° |
| 2026-05-04 10:12 | 40.86174 | 26.07955 | 30086 ft | 492 kts | 261° |
| 2026-05-04 10:13 | 40.85152 | 25.99028 | 30070 ft | 491 kts | 261° |
| 2026-05-04 10:13 | 40.84125 | 25.90117 | 30091 ft | 491 kts | 261° |
| 2026-05-04 10:14 | 40.83090 | 25.81200 | 30084 ft | 491 kts | 261° |
| 2026-05-04 10:16 | 40.78894 | 25.45648 | 30112 ft | 490 kts | 260° |
| 2026-05-04 10:16 | 40.77827 | 25.36765 | 30122 ft | 489 kts | 260° |
| 2026-05-04 10:17 | 40.76756 | 25.27900 | 30116 ft | 489 kts | 260° |
| 2026-05-04 10:19 | 40.72412 | 24.92545 | 30122 ft | 489 kts | 259° |
| 2026-05-04 10:19 | 40.71311 | 24.83711 | 30128 ft | 488 kts | 260° |
| 2026-05-04 10:20 | 40.70196 | 24.74883 | 30121 ft | 487 kts | 259° |
| 2026-05-04 10:20 | 40.69030 | 24.66086 | 30120 ft | 486 kts | 259° |
| 2026-05-04 10:21 | 40.67869 | 24.57311 | 30135 ft | 486 kts | 259° |
| 2026-05-04 10:21 | 40.66699 | 24.48530 | 30146 ft | 486 kts | 259° |
| 2026-05-04 10:22 | 40.64941 | 24.35422 | 30143 ft | 486 kts | 259° |
| 2026-05-04 10:23 | 40.63758 | 24.26664 | 30149 ft | 486 kts | 259° |
| 2026-05-04 10:25 | 40.62396 | 23.92195 | 30154 ft | 472 kts | 303° |
| 2026-05-04 10:25 | 40.65932 | 23.84900 | 30149 ft | 472 kts | 306° |
| 2026-05-04 10:26 | 40.69585 | 23.77746 | 30151 ft | 470 kts | 307° |
| 2026-05-04 10:26 | 40.73266 | 23.70634 | 30150 ft | 469 kts | 307° |
| 2026-05-04 10:27 | 40.76943 | 23.63525 | 30145 ft | 469 kts | 307° |
| 2026-05-04 10:27 | 40.80603 | 23.56434 | 30149 ft | 467 kts | 307° |
| 2026-05-04 10:28 | 40.84227 | 23.49399 | 30147 ft | 464 kts | 307° |
| 2026-05-04 10:28 | 40.87844 | 23.42359 | 30149 ft | 462 kts | 307° |
| 2026-05-04 10:29 | 40.91448 | 23.35329 | 30149 ft | 461 kts | 307° |
| 2026-05-04 10:29 | 40.95037 | 23.28314 | 30152 ft | 459 kts | 307° |
| 2026-05-04 10:30 | 40.98605 | 23.21324 | 30152 ft | 458 kts | 308° |
| 2026-05-04 10:30 | 41.02159 | 23.14345 | 30154 ft | 457 kts | 308° |
| 2026-05-04 10:31 | 41.05705 | 23.07368 | 30150 ft | 456 kts | 308° |
| 2026-05-04 10:32 | 41.21846 | 22.88789 | 29616 ft | 440 kts | 330° |
| 2026-05-04 10:33 | 41.24432 | 22.86542 | 28489 ft | 447 kts | 330° |
| 2026-05-04 10:33 | 41.27033 | 22.84281 | 27660 ft | 447 kts | 330° |
| 2026-05-04 10:33 | 41.29450 | 22.81618 | 26721 ft | 456 kts | 316° |
| 2026-05-04 10:33 | 41.31267 | 22.78132 | 26017 ft | 462 kts | 301° |
| 2026-05-04 10:34 | 41.32434 | 22.74134 | 25244 ft | 468 kts | 287° |
| 2026-05-04 10:34 | 41.32891 | 22.69798 | 24265 ft | 478 kts | 276° |
| 2026-05-04 10:34 | 41.33027 | 22.65357 | 23190 ft | 484 kts | 274° |
| 2026-05-04 10:34 | 41.33119 | 22.60890 | 22473 ft | 480 kts | 274° |
| 2026-05-04 10:35 | 41.33185 | 22.56510 | 21959 ft | 468 kts | 274° |
| 2026-05-04 10:35 | 41.33236 | 22.52131 | 20824 ft | 474 kts | 274° |
| 2026-05-04 10:35 | 41.33278 | 22.47827 | 20209 ft | 455 kts | 274° |
| 2026-05-04 10:35 | 41.33316 | 22.43657 | 19418 ft | 451 kts | 274° |
| 2026-05-04 10:36 | 41.33353 | 22.39513 | 18868 ft | 445 kts | 274° |
| 2026-05-04 10:36 | 41.33388 | 22.35427 | 18292 ft | 440 kts | 274° |
| 2026-05-04 10:36 | 41.33421 | 22.31369 | 17579 ft | 437 kts | 274° |
| 2026-05-04 10:36 | 41.33451 | 22.27361 | 16988 ft | 431 kts | 274° |
| 2026-05-04 10:37 | 41.33480 | 22.23443 | 16450 ft | 425 kts | 274° |
| 2026-05-04 10:37 | 41.33507 | 22.19564 | 16194 ft | 413 kts | 274° |
| 2026-05-04 10:37 | 41.33532 | 22.15807 | 16007 ft | 400 kts | 274° |
| 2026-05-04 10:37 | 41.33555 | 22.12163 | 15859 ft | 386 kts | 275° |
| 2026-05-04 10:39 | 41.33660 | 21.92863 | 15299 ft | 310 kts | 276° |
| 2026-05-04 10:39 | 41.33742 | 21.90010 | 14858 ft | 307 kts | 286° |
| 2026-05-04 10:39 | 41.34401 | 21.87380 | 14512 ft | 293 kts | 304° |
| 2026-05-04 10:40 | 41.35562 | 21.85220 | 14176 ft | 284 kts | 320° |
| 2026-05-04 10:40 | 41.37064 | 21.83587 | 13866 ft | 275 kts | 334° |
| 2026-05-04 10:40 | 41.38757 | 21.82486 | 13482 ft | 270 kts | 344° |
| 2026-05-04 10:40 | 41.40521 | 21.81644 | 13085 ft | 269 kts | 345° |
| 2026-05-04 10:41 | 41.42317 | 21.81008 | 12696 ft | 264 kts | 355° |
| 2026-05-04 10:41 | 41.44119 | 21.80621 | 12306 ft | 265 kts | 349° |
| 2026-05-04 10:41 | 41.45853 | 21.79827 | 11936 ft | 265 kts | 345° |
| 2026-05-04 10:41 | 41.47603 | 21.79063 | 11537 ft | 264 kts | 347° |
| 2026-05-04 10:42 | 41.49356 | 21.78370 | 11160 ft | 263 kts | 348° |
| 2026-05-04 10:42 | 41.51121 | 21.77718 | 10788 ft | 262 kts | 349° |
| 2026-05-04 10:42 | 41.52886 | 21.77091 | 10434 ft | 263 kts | 349° |
| 2026-05-04 10:42 | 41.54652 | 21.76488 | 10105 ft | 261 kts | 349° |
| 2026-05-04 10:43 | 41.56412 | 21.75902 | 9710 ft | 262 kts | 349° |
| 2026-05-04 10:44 | 41.68930 | 21.71604 | 6716 ft | 268 kts | 347° |
| 2026-05-04 10:45 | 41.70709 | 21.70990 | 6300 ft | 259 kts | 348° |
| 2026-05-04 10:45 | 41.72419 | 21.70397 | 5917 ft | 250 kts | 347° |
| 2026-05-04 10:45 | 41.74073 | 21.69825 | 5555 ft | 242 kts | 347° |
| 2026-05-04 10:45 | 41.75688 | 21.69263 | 5186 ft | 238 kts | 347° |
| 2026-05-04 10:46 | 41.77254 | 21.68723 | 4877 ft | 228 kts | 348° |
| 2026-05-04 10:46 | 41.78771 | 21.68194 | 4519 ft | 220 kts | 348° |
| 2026-05-04 10:46 | 41.80232 | 21.67687 | 4110 ft | 213 kts | 347° |
| 2026-05-04 10:46 | 41.81624 | 21.67196 | 3826 ft | 201 kts | 348° |
| 2026-05-04 10:47 | 41.82966 | 21.66750 | 3558 ft | 194 kts | 346° |
| 2026-05-04 10:47 | 41.84200 | 21.66310 | 3357 ft | 173 kts | 347° |
| 2026-05-04 10:47 | 41.85307 | 21.65917 | 3119 ft | 158 kts | 348° |
| 2026-05-04 10:47 | 41.86302 | 21.65575 | 2858 ft | 139 kts | 349° |
| 2026-05-04 10:49 | 41.92925 | 21.63271 | 1249 ft | 143 kts | 346° |
| 2026-05-04 10:49 | 41.93913 | 21.62939 | 1051 ft | 150 kts | 343° |
| 2026-05-04 10:50 | 41.94913 | 21.62559 | 805 ft | 147 kts | 347° |
| 2026-05-04 10:51 | 41.96213 | 21.62393 | 794 ft | 19 kts | 165° |
| 2026-05-04 10:52 | 41.96128 | 21.62464 | 795 ft | 12 kts | 98° |
| 2026-05-04 10:52 | 41.96122 | 21.62482 | 795 ft | 1 kts | 120° |
| 2026-05-04 10:52 | 41.96115 | 21.62497 | 795 ft | 3 kts | 127° |
| 2026-05-04 10:54 | 41.96105 | 21.62571 | 810 ft | 0 kts | 78° |